Atwood, Illinois
Current Conditions -  °F | °C
As of 5:53 AM on Tuesday 21 Oct 2014 (Local Time) from KCMI Reporting Station
Haze Haze  
Wind Chill:   Ceiling: 4900
Heat Index:   Visibility: 3mi
Dew Point:   Wind: 5mph
Humidity: 96%   Direction: 340°NNW
Pressure: 30.06"   Gusts: NA
Location:  39.8°N, 88.46°W
Report Text: KCMI 211053Z 34004KT 3SM BR OVC049 07/06 A3006 RMK AO2 SLP181 T00670061 $
Loading
Personal Weather Stations






























Interactive Weather Map
Tropical Storm Tracking
New forecast layout! Learn more

10-Day Weather Forecast

Advertisements
Track Severe Weather on mobile